Plainview, South Dakota
Current Conditions -  °F | °C
As of 6:28 AM on Thursday 27 Nov 2014 (Local Time) from KPHP Reporting Station
Overcast Overcast  
Wind Chill:   Ceiling: 10000
Heat Index: 17°   Visibility: 10mi
Dew Point: 11°   Wind: 15mph
Humidity: 77%   Direction: 110°ESE
Pressure: 30.22"   Gusts: NA
Location:  44.534°N, 102.24°W
Report Text: KPHP 271328Z AUTO 11013KT 10SM SCT028 SCT080 OVC100 M08/M12 A3022 RMK AO2 T10831117
Loading
Personal Weather Stations






























Interactive Weather Map New forecast layout! Learn more

10-Day Weather Forecast

Advertisements
Track Severe Weather on mobile